Tropical Cyclones
[Index]
Main Index Home Page Stock Weather Photos Extreme Storms Discussion Storm News and Storm Chasing Reports Tropical Cyclones / Hurricanes / Typhoons Weather Data and Links Wild Fires / Bushfires Weather Observation Techniques Weather Picture Catalogue Tornado Pictures and Reports Stock Video Footage and DVDs for sale
Season 2007-2008 Tropical Cyclone PANCHO Track Map
Season 2007-2008 Summaries: [BoM-AU] [JTWC-AU] [JTWC-SIO] [JTWC-SPAC] [JTWC-SH]
<<- Previous TC | JTWC 2007-2008 Season | Next TC ->>

click for intensity scale information  Lat/long Grid: Show Hide

 Date Labels: Show Hide

Joint Typhoon Warning Centre Cyclone Data

Name: PANCHO

23 Mar 2008 18:00 UTC to 30 Mar 2008 06:00 UTC

    date/time    lat    long     hPa   cat  kts
2008-03-23 18   11.9   102.0    1004         25          
2008-03-24 00   12.3   102.4    1000         30          
2008-03-24 06   12.7   102.8    1000         30          
2008-03-24 12   13.1   103.2     996         35          
2008-03-24 18   13.5   103.6     996         35          
2008-03-25 00   13.8   103.8     993    1    40          
2008-03-25 06   14.2   104.0     989    1    45          
2008-03-25 12   14.6   104.1     985    1    50          
2008-03-25 18   15.0   104.2     982    2    55          
2008-03-25 18   15.0   104.2     982    2    55          
2008-03-26 00   15.5   104.4     974    2    65          
2008-03-26 00   15.5   104.4     974    2    65          
2008-03-26 06   16.2   104.7     970    2    70          
2008-03-26 06   16.2   104.7     970    2    70          
2008-03-26 06   16.2   104.7     970    2    70          
2008-03-26 12   17.1   105.2     959    3    85          
2008-03-26 12   17.1   105.2     959    3    85          
2008-03-26 12   17.1   105.2     959    3    85          
2008-03-26 18   18.2   105.5     956    3    90          
2008-03-26 18   18.2   105.5     956    3    90          
2008-03-26 18   18.2   105.5     956    3    90          
2008-03-27 00   19.3   105.9     948    4   100          
2008-03-27 00   19.3   105.9     948    4   100          
2008-03-27 00   19.3   105.9     948    4   100          
2008-03-27 06   20.5   106.3     952    3    95          
2008-03-27 06   20.5   106.3     952    3    95          
2008-03-27 06   20.5   106.3     952    3    95          
2008-03-27 12   21.6   106.9     956    3    90          
2008-03-27 12   21.6   106.9     956    3    90          
2008-03-27 12   21.6   106.9     956    3    90          
2008-03-27 18   22.6   107.5     956    3    90          
2008-03-27 18   22.6   107.5     956    3    90          
2008-03-27 18   22.6   107.5     956    3    90          
2008-03-28 00   23.5   108.2     959    3    85          
2008-03-28 00   23.5   108.2     959    3    85          
2008-03-28 00   23.5   108.2     959    3    85          
2008-03-28 06   24.2   108.8     967    3    75          
2008-03-28 06   24.2   108.8     967    3    75          
2008-03-28 06   24.2   108.8     967    3    75          
2008-03-28 12   24.8   109.4     974    2    65          
2008-03-28 12   24.8   109.4     974    2    65          
2008-03-28 18   25.1   110.2     989    1    45          
2008-03-29 00   25.1   110.8    1000         30          
2008-03-29 06   25.4   111.3    1004         25          
2008-03-29 12   25.5   111.7    1004         25          
2008-03-29 18   25.8   111.7    1004         25          
2008-03-30 00   25.9   111.4    1007         20          
2008-03-30 06   26.0   111.1    1007         20          
Winds are 1-min average.

Tropical cyclone tracks developed by Michael Bath using data from the Joint Typhoon Warning Centre Best Tracks and Google Maps.


[Australian Severe Weather index] [Copyright Notice] [Email Contacts] [Search This Site] [Privacy Policy]
Document: tropical_cyclone_pancho.htm Updated: 28 June 2017